Time;durP1;ratioP1;P1;durP2;ratioP2;P2;SDS_P1;SDS_P2;PMS_P1;PMS_P2;Temp;Humidity;BMP_temperature;BMP_pressure;BME280_temperature;BME280_humidity;BME280_pressure;Samples;Min_cycle;Max_cycle;Signal;HPM_P1;HPM_P2
2020/12/09 00:01:14;;;;;;;52.40;33.43;;;;;;;4.14;100.00;100215.84;5008431;28;20223;-71
2020/12/09 00:03:40;;;;;;;57.10;33.13;;;;;;;4.21;99.56;100212.78;4993421;28;20188;-71
2020/12/09 00:06:08;;;;;;;53.17;32.27;;;;;;;4.16;99.41;100213.75;5008408;28;20217;-71
2020/12/09 00:08:33;;;;;;;52.07;32.67;;;;;;;4.04;99.68;100210.31;4993731;28;20217;-71
2020/12/09 00:11:01;;;;;;;54.83;32.47;;;;;;;3.99;99.73;100207.53;5009216;28;20284;-71
2020/12/09 00:13:27;;;;;;;54.37;33.23;;;;;;;4.09;100.00;100197.78;5009872;28;20216;-71
2020/12/09 00:15:55;;;;;;;52.57;32.97;;;;;;;4.12;100.00;100201.84;4992396;28;20686;-71
2020/12/09 00:18:23;;;;;;;55.33;32.47;;;;;;;4.06;99.60;100202.81;4994543;28;20685;-71
2020/12/09 00:20:48;;;;;;;51.73;32.37;;;;;;;4.06;99.67;100198.25;4988081;28;20258;-71
2020/12/09 00:23:16;;;;;;;54.17;32.17;;;;;;;3.94;100.00;100208.25;4997380;28;20196;-71
2020/12/09 00:25:42;;;;;;;51.33;30.93;;;;;;;3.80;100.00;100214.16;5018454;28;20267;-71
2020/12/09 00:28:08;;;;;;;50.90;30.27;;;;;;;3.64;100.00;100212.22;4993277;28;20216;-71
2020/12/09 00:30:33;;;;;;;52.13;30.30;;;;;;;3.63;100.00;100207.09;5008993;28;20223;-71
2020/12/09 00:33:01;;;;;;;56.03;31.00;;;;;;;3.75;100.00;100211.34;4993637;28;20184;-71
2020/12/09 00:35:30;;;;;;;50.90;31.20;;;;;;;3.84;100.00;100210.72;5008495;28;20220;-71
2020/12/09 00:37:56;;;;;;;52.23;30.93;;;;;;;3.71;100.00;100210.22;4992919;28;20617;-71
2020/12/09 00:40:24;;;;;;;54.40;31.57;;;;;;;3.88;100.00;100206.53;4992352;28;20188;-71
2020/12/09 00:42:49;;;;;;;52.03;30.70;;;;;;;3.98;100.00;100201.34;4976631;28;20219;-71
2020/12/09 00:45:15;;;;;;;53.10;30.33;;;;;;;3.99;100.00;100212.91;5009545;28;20639;-71
2020/12/09 00:47:41;;;;;;;52.57;30.97;;;;;;;4.08;99.68;100211.44;5009303;28;20292;-71
2020/12/09 00:52:41;;;;;;;56.77;31.37;;;;;;;3.97;99.98;100215.81;5023207;28;20177;-71
2020/12/09 00:55:10;;;;;;;53.47;31.30;;;;;;;4.04;99.22;100221.84;4992690;28;20196;-71
2020/12/09 00:57:36;;;;;;;53.13;31.30;;;;;;;4.09;99.50;100230.03;4996296;28;20202;-71
2020/12/09 01:00:06;;;;;;;51.47;30.83;;;;;;;4.02;99.62;100229.34;5012003;28;20188;-71
2020/12/09 01:02:35;;;;;;;52.53;30.33;;;;;;;4.11;99.26;100221.72;5028251;28;20274;-71
2020/12/09 01:05:01;;;;;;;50.77;30.83;;;;;;;4.08;99.69;100228.38;5012082;28;20181;-71
2020/12/09 01:07:27;;;;;;;53.33;31.47;;;;;;;4.13;99.46;100219.63;5028564;28;20298;-72
2020/12/09 01:09:52;;;;;;;55.73;32.63;;;;;;;4.09;99.35;100213.91;4996243;28;20181;-71
2020/12/09 01:12:20;;;;;;;56.93;31.23;;;;;;;4.05;100.00;100223.50;4997452;28;20235;-71
2020/12/09 01:14:46;;;;;;;58.47;31.97;;;;;;;3.94;99.83;100221.69;4999873;28;20538;-71
2020/12/09 01:17:11;;;;;;;53.23;31.00;;;;;;;4.05;100.00;100228.06;5015563;28;20231;-71
2020/12/09 01:19:37;;;;;;;58.80;31.67;;;;;;;4.10;99.80;100238.88;5011983;28;20208;-71
2020/12/09 01:22:06;;;;;;;54.33;30.93;;;;;;;4.13;99.74;100239.22;5004196;28;20236;-71
2020/12/09 01:24:32;;;;;;;55.13;30.40;;;;;;;4.12;99.40;100242.16;5020827;28;20195;-71
2020/12/09 01:26:58;;;;;;;53.50;31.50;;;;;;;4.19;99.28;100234.75;5015731;28;20232;-71
2020/12/09 01:29:24;;;;;;;53.37;30.23;;;;;;;4.02;99.99;100233.91;5012830;28;20216;-71
2020/12/09 01:31:59;;;;;;;54.03;30.40;;;;;;;4.09;99.75;100238.09;4995605;28;20244;-71
2020/12/09 01:34:25;;;;;;;55.53;31.07;;;;;;;3.88;100.00;100235.25;4980816;28;20620;-70
2020/12/09 01:36:53;;;;;;;56.80;30.60;;;;;;;3.98;100.00;100232.78;5012220;28;20228;-71
2020/12/09 01:39:19;;;;;;;61.17;31.97;;;;;;;3.98;100.00;100232.78;5014915;28;20184;-70
2020/12/09 01:41:45;;;;;;;59.30;31.87;;;;;;;3.90;100.00;100231.28;5015318;28;20220;-71
2020/12/09 01:44:10;;;;;;;61.87;32.77;;;;;;;4.09;100.00;100234.59;5032285;28;20188;-71
2020/12/09 01:46:36;;;;;;;62.43;31.77;;;;;;;4.00;100.00;100238.72;5014630;28;20235;-70
2020/12/09 01:49:04;;;;;;;57.90;31.57;;;;;;;4.03;100.00;100240.91;5001854;28;20215;-71
2020/12/09 01:51:30;;;;;;;59.33;31.13;;;;;;;4.13;100.00;100241.09;5003832;28;20220;-71
2020/12/09 01:53:57;;;;;;;56.17;30.87;;;;;;;4.19;100.00;100240.94;5025609;28;20195;-71
2020/12/09 01:56:23;;;;;;;56.30;31.67;;;;;;;4.17;99.75;100245.75;5027467;28;20231;-71
2020/12/09 01:58:49;;;;;;;59.20;31.97;;;;;;;4.03;100.00;100241.75;5004478;28;20772;-71
2020/12/09 02:01:15;;;;;;;60.03;31.67;;;;;;;4.05;100.00;100241.50;4998128;28;20572;-71
2020/12/09 02:03:41;;;;;;;60.60;31.87;;;;;;;4.10;100.00;100244.25;5012119;28;20177;-71
2020/12/09 02:06:09;;;;;;;61.50;31.87;;;;;;;4.11;100.00;100241.34;4985360;28;20259;-71
2020/12/09 02:08:34;;;;;;;58.67;31.13;;;;;;;4.14;100.00;100232.81;5025359;28;20209;-72
2020/12/09 02:11:01;;;;;;;63.13;31.83;;;;;;;4.02;100.00;100223.16;5019492;28;20225;-72
2020/12/09 02:13:27;;;;;;;58.00;31.57;;;;;;;4.09;100.00;100224.66;5005013;28;20188;-71
2020/12/09 02:15:55;;;;;;;61.60;32.47;;;;;;;4.14;100.00;100222.06;5012522;28;20714;-71
2020/12/09 02:18:24;;;;;;;63.07;32.90;;;;;;;4.21;99.76;100223.53;5013840;28;20224;-71
2020/12/09 02:20:49;;;;;;;66.47;32.60;;;;;;;4.20;100.00;100225.66;5004599;28;20260;-71
2020/12/09 02:23:17;;;;;;;61.53;32.47;;;;;;;4.22;99.88;100214.41;5034868;28;20207;-72
2020/12/09 02:25:45;;;;;;;57.87;31.33;;;;;;;4.28;99.57;100218.81;5016514;28;20307;-70
2020/12/09 02:28:11;;;;;;;59.03;32.33;;;;;;;4.23;99.42;100215.22;5032760;28;20299;-69
2020/12/09 02:30:39;;;;;;;58.37;31.83;;;;;;;4.31;99.22;100212.16;5014597;28;20236;-70
2020/12/09 02:33:05;;;;;;;60.43;31.63;;;;;;;4.34;99.34;100217.03;4998533;28;20199;-70
2020/12/09 02:35:34;;;;;;;61.43;32.97;;;;;;;4.35;99.64;100213.28;5014035;28;20231;-70
2020/12/09 02:38:03;;;;;;;63.93;33.00;;;;;;;4.27;99.08;100217.19;5032437;28;20196;-70
2020/12/09 02:40:31;;;;;;;63.70;33.70;;;;;;;4.32;99.38;100214.59;5030379;28;20709;-71
2020/12/09 02:42:57;;;;;;;62.73;33.80;;;;;;;4.42;99.30;100206.69;5015007;28;20633;-71
2020/12/09 02:45:25;;;;;;;61.67;33.40;;;;;;;4.38;99.48;100213.63;5013999;28;20223;-70
2020/12/09 02:47:51;;;;;;;66.00;35.17;;;;;;;4.46;99.13;100210.53;5014015;28;20303;-70
2020/12/09 02:50:17;;;;;;;70.50;34.93;;;;;;;4.36;99.24;100215.75;5005679;28;20271;-71
2020/12/09 02:52:47;;;;;;;69.07;34.97;;;;;;;4.46;99.07;100221.28;5001836;28;20227;-71
2020/12/09 02:55:15;;;;;;;73.77;36.27;;;;;;;4.44;99.05;100234.16;5011442;28;20183;-72
2020/12/09 02:57:46;;;;;;;74.50;37.10;;;;;;;4.37;99.37;100238.84;4995568;28;20199;-71
2020/12/09 03:00:12;;;;;;;73.47;35.60;;;;;;;4.49;99.05;100236.94;4995019;28;20247;-72
2020/12/09 03:02:38;;;;;;;72.57;36.43;;;;;;;4.47;99.07;100247.13;5011206;28;20180;-71
2020/12/09 03:05:04;;;;;;;69.73;34.50;;;;;;;4.48;99.32;100234.47;5010097;28;20185;-72
2020/12/09 03:07:29;;;;;;;73.43;35.97;;;;;;;4.61;98.57;100238.50;5011880;28;20667;-71
2020/12/09 03:09:55;;;;;;;71.80;36.70;;;;;;;4.49;99.06;100236.94;4994626;28;20189;-72
2020/12/09 03:12:23;;;;;;;68.10;35.63;;;;;;;4.51;99.49;100234.81;4994147;28;20216;-72
2020/12/09 03:14:48;;;;;;;74.07;35.37;;;;;;;4.54;98.98;100239.69;4994164;28;20224;-71
2020/12/09 03:17:14;;;;;;;71.83;36.47;;;;;;;4.59;98.85;100232.50;4993725;28;20228;-71
2020/12/09 03:19:42;;;;;;;71.83;36.80;;;;;;;4.62;98.36;100225.84;5017231;28;20679;-72
2020/12/09 03:22:08;;;;;;;73.23;37.13;;;;;;;4.62;98.21;100242.00;5001641;28;20307;-71
2020/12/09 03:24:34;;;;;;;73.87;36.50;;;;;;;4.65;97.93;100236.09;4992557;28;20291;-69
2020/12/09 03:27:01;;;;;;;67.67;35.77;;;;;;;4.48;98.60;100251.41;4996881;28;20615;-70
2020/12/09 03:29:27;;;;;;;67.03;35.03;;;;;;;4.49;98.84;100246.88;4994607;28;20631;-70
2020/12/09 03:31:52;;;;;;;67.80;34.47;;;;;;;4.49;98.80;100247.69;4993523;28;20220;-70
2020/12/09 03:34:18;;;;;;;66.30;35.43;;;;;;;4.53;98.63;100248.81;5010435;28;20177;-71
2020/12/09 03:36:44;;;;;;;64.57;35.43;;;;;;;4.49;98.06;100247.69;5009627;28;20286;-70
2020/12/09 03:39:09;;;;;;;67.63;35.53;;;;;;;4.57;97.90;100244.59;5010271;28;20193;-70
2020/12/09 03:41:35;;;;;;;60.90;33.93;;;;;;;4.51;98.26;100255.50;4993111;28;20228;-70
2020/12/09 03:44:00;;;;;;;63.87;34.27;;;;;;;4.67;98.14;100250.13;4994161;28;20677;-71
2020/12/09 03:46:28;;;;;;;65.03;35.00;;;;;;;4.68;97.66;100251.75;5009297;28;20279;-70
2020/12/09 03:48:54;;;;;;;60.90;34.87;;;;;;;4.73;97.46;100255.34;5013225;28;20204;-70
2020/12/09 03:51:19;;;;;;;64.30;35.00;;;;;;;4.69;97.26;100254.22;5010548;28;20243;-71
2020/12/09 03:53:48;;;;;;;60.53;34.33;;;;;;;4.67;97.20;100255.50;5019251;28;20204;-70
2020/12/09 03:56:16;;;;;;;63.53;34.87;;;;;;;4.66;97.32;100254.69;5019354;28;20217;-72
2020/12/09 03:58:44;;;;;;;68.73;35.37;;;;;;;4.73;96.99;100254.53;4993635;28;20201;-70
2020/12/09 04:01:12;;;;;;;64.17;34.57;;;;;;;4.71;96.68;100256.66;5009453;28;20232;-70
2020/12/09 04:03:40;;;;;;;64.13;35.10;;;;;;;4.78;97.05;100257.28;4978190;28;20192;-71
2020/12/09 04:06:05;;;;;;;71.97;34.60;;;;;;;4.70;97.01;100249.63;4992580;28;20225;-71
2020/12/09 04:08:31;;;;;;;72.50;35.57;;;;;;;4.83;96.83;100241.25;4994164;28;20240;-70
2020/12/09 04:10:56;;;;;;;71.13;36.97;;;;;;;4.78;96.80;100244.69;4993725;28;20221;-71
2020/12/09 04:13:23;;;;;;;67.40;35.87;;;;;;;4.70;97.01;100249.63;5010533;28;20673;-71
2020/12/09 04:15:48;;;;;;;63.40;35.13;;;;;;;4.76;97.13;100232.50;4992758;28;20228;-71
2020/12/09 04:18:14;;;;;;;72.63;35.33;;;;;;;4.78;97.08;100233.09;4994882;28;20212;-70
2020/12/09 04:20:39;;;;;;;72.50;36.83;;;;;;;4.78;96.86;100233.09;5021791;28;20220;-71
2020/12/09 04:23:05;;;;;;;70.60;35.10;;;;;;;4.82;96.90;100227.00;5016232;28;20552;-70
2020/12/09 04:25:31;;;;;;;74.13;36.77;;;;;;;4.79;97.08;100215.91;5005176;28;20224;-71
2020/12/09 04:27:59;;;;;;;73.23;36.37;;;;;;;4.88;96.36;100215.25;4996728;28;20219;-71
2020/12/09 04:30:25;;;;;;;70.70;37.53;;;;;;;4.88;96.57;100217.13;5012841;28;20173;-71
2020/12/09 04:32:51;;;;;;;69.77;35.67;;;;;;;4.87;96.71;100223.53;5012713;28;20172;-71
2020/12/09 04:35:16;;;;;;;73.33;38.87;;;;;;;4.76;97.02;100217.22;5026918;28;20678;-70
2020/12/09 04:37:43;;;;;;;75.77;37.17;;;;;;;4.77;97.26;100220.72;5020314;28;20294;-71
2020/12/09 04:40:08;;;;;;;72.30;36.53;;;;;;;4.80;97.12;100233.66;4995764;28;20278;-71
2020/12/09 04:42:34;;;;;;;73.33;37.40;;;;;;;4.73;97.28;100233.03;5029333;28;20226;-71
2020/12/09 04:45:00;;;;;;;71.97;36.70;;;;;;;4.75;97.10;100230.91;4995972;28;20242;-71
2020/12/09 04:47:26;;;;;;;77.63;37.47;;;;;;;4.80;97.22;100234.50;5030056;28;20250;-71
2020/12/09 04:50:07;;;;;;;73.53;36.50;;;;;;;4.86;97.11;100240.75;5026079;28;20552;-71
2020/12/09 04:52:46;;;;;;;72.20;36.47;;;;;;;4.83;97.17;100250.13;4999865;28;20650;-70
2020/12/09 04:55:17;;;;;;;73.87;37.13;;;;;;;4.86;97.19;100248.84;5012056;28;20181;-71
2020/12/09 04:58:13;;;;;;;67.47;38.23;;;;;;;4.82;97.61;100256.56;4991383;28;20227;-70
2020/12/09 05:00:44;;;;;;;75.47;36.80;;;;;;;4.83;97.40;100262.75;5010423;28;20244;-71
2020/12/09 05:03:13;;;;;;;73.33;36.63;;;;;;;4.80;97.53;100256.00;4993878;28;20571;-71
2020/12/09 05:05:38;;;;;;;71.90;36.97;;;;;;;4.73;97.07;100276.88;5031299;28;20234;-71
2020/12/09 05:08:04;;;;;;;78.27;37.97;;;;;;;4.88;97.22;100270.91;5015266;28;20212;-71
2020/12/09 05:10:30;;;;;;;73.50;36.30;;;;;;;4.83;96.76;100277.03;5014760;28;20223;-72
2020/12/09 05:12:56;;;;;;;75.13;37.33;;;;;;;4.84;97.19;100277.84;5000045;28;20199;-71
2020/12/09 05:15:24;;;;;;;75.80;37.93;;;;;;;4.76;97.58;100275.56;5000147;28;20187;-71
2020/12/09 05:18:08;;;;;;;77.90;37.13;;;;;;;4.84;97.32;100281.34;5018706;28;20188;-71
2020/12/09 05:20:35;;;;;;;74.80;37.40;;;;;;;4.84;97.63;100278.66;4999205;28;20220;-71
2020/12/09 05:23:04;;;;;;;73.73;38.00;;;;;;;4.86;97.12;100281.13;5014696;28;20191;-71
2020/12/09 05:25:34;;;;;;;79.97;38.50;;;;;;;4.87;97.22;100282.72;5006865;28;20307;-71
2020/12/09 05:28:01;;;;;;;74.30;37.77;;;;;;;4.84;97.15;100278.66;5016255;28;20239;-70
2020/12/09 05:30:51;;;;;;;75.43;36.80;;;;;;;4.83;97.40;100276.22;5015977;28;20231;-71
2020/12/09 05:33:17;;;;;;;79.27;37.77;;;;;;;4.88;97.36;100282.50;5032753;28;20239;-71
2020/12/09 05:35:44;;;;;;;81.63;36.03;;;;;;;4.79;97.62;100288.53;5032545;28;20759;-70
2020/12/09 05:38:18;;;;;;;75.23;36.93;;;;;;;4.75;97.66;100284.69;5015691;28;20286;-70
2020/12/09 05:40:45;;;;;;;79.07;37.53;;;;;;;4.71;98.09;100288.94;5015678;28;20635;-70
2020/12/09 05:43:15;;;;;;;79.30;37.13;;;;;;;4.78;97.83;100281.50;4999641;28;20210;-70
2020/12/09 05:45:41;;;;;;;75.87;37.70;;;;;;;4.81;97.64;100278.34;5014428;28;20311;-72
2020/12/09 05:48:26;;;;;;;73.73;36.00;;;;;;;4.63;98.49;100281.25;5015461;28;20208;-71
2020/12/09 05:51:01;;;;;;;75.00;37.50;;;;;;;4.76;98.62;100287.16;5018623;28;20220;-70
2020/12/09 05:53:33;;;;;;;80.03;36.50;;;;;;;4.70;98.72;100273.84;4987216;28;20713;-71
2020/12/09 05:56:10;;;;;;;80.17;38.37;;;;;;;4.39;100.00;100260.94;5005924;28;20225;-71
2020/12/09 05:58:40;;;;;;;75.00;34.93;;;;;;;4.49;100.00;100271.88;4995757;28;20229;-72
2020/12/09 06:01:16;;;;;;;75.27;37.53;;;;;;;4.53;99.55;100289.16;4995476;28;20649;-72
2020/12/09 06:03:48;;;;;;;75.87;37.10;;;;;;;4.64;99.14;100285.59;4981515;28;20550;-71
2020/12/09 06:06:23;;;;;;;76.17;35.87;;;;;;;4.56;99.63;100293.22;5008331;28;20235;-70
2020/12/09 06:08:56;;;;;;;76.57;36.37;;;;;;;4.56;99.54;100307.50;5003291;28;20251;-71
2020/12/09 06:11:25;;;;;;;75.87;36.03;;;;;;;4.60;99.11;100292.50;4994228;28;20307;-71
2020/12/09 06:13:51;;;;;;;78.40;36.03;;;;;;;4.48;99.91;100286.38;4995253;28;20204;-70
2020/12/09 06:16:18;;;;;;;76.53;36.37;;;;;;;4.59;99.26;100274.72;5010224;28;20224;-71
2020/12/09 06:18:49;;;;;;;73.70;36.30;;;;;;;4.57;99.08;100276.84;5015336;28;20616;-70
2020/12/09 06:21:17;;;;;;;72.70;35.57;;;;;;;4.60;98.96;100276.38;5019599;28;20290;-69
2020/12/09 06:23:43;;;;;;;69.50;34.47;;;;;;;4.45;99.50;100277.97;5015690;28;20197;-71
2020/12/09 06:26:12;;;;;;;69.83;35.67;;;;;;;4.48;99.34;100283.69;5017589;28;20226;-69
2020/12/09 06:28:42;;;;;;;72.77;34.50;;;;;;;4.62;99.01;100290.38;4990656;28;20208;-74
2020/12/09 06:31:20;;;;;;;67.20;34.33;;;;;;;4.56;99.16;100286.00;5030123;28;20230;-70
2020/12/09 06:33:53;;;;;;;66.87;35.03;;;;;;;4.62;98.90;100282.31;5033756;28;20201;-70
2020/12/09 06:36:23;;;;;;;64.30;33.10;;;;;;;4.48;98.76;100277.50;5021083;28;20232;-70
2020/12/09 06:39:04;;;;;;;64.70;33.17;;;;;;;4.52;98.60;100284.81;5029740;28;20705;-72
2020/12/09 06:41:29;;;;;;;74.30;35.90;;;;;;;4.64;98.59;100283.69;5029310;28;20620;-70
2020/12/09 06:44:07;;;;;;;67.93;34.30;;;;;;;4.68;98.04;100300.16;5014831;28;20177;-71
2020/12/09 06:46:39;;;;;;;70.27;34.63;;;;;;;4.66;98.36;100296.91;5029981;28;20709;-71
2020/12/09 06:49:05;;;;;;;68.60;33.83;;;;;;;4.65;97.99;100296.09;5027114;28;20236;-71
2020/12/09 06:51:34;;;;;;;63.37;33.47;;;;;;;4.65;98.08;100304.16;5019728;28;20224;-72
2020/12/09 06:54:18;;;;;;;68.10;33.33;;;;;;;4.69;97.41;100317.94;5021902;28;20180;-71
2020/12/09 06:57:25;;;;;;;63.27;33.03;;;;;;;4.71;97.65;100319.31;5040796;28;20220;-71
2020/12/09 07:00:20;;;;;;;60.47;31.33;;;;;;;4.78;97.60;100311.94;5032159;28;20194;-71
2020/12/09 07:02:49;;;;;;;64.23;32.60;;;;;;;4.63;97.93;100316.22;5001819;28;20230;-71
2020/12/09 07:05:19;;;;;;;66.50;33.53;;;;;;;4.68;97.75;100321.69;5013145;28;20609;-71
2020/12/09 07:07:51;;;;;;;67.53;34.13;;;;;;;4.65;97.34;100330.22;5014781;28;20687;-70
2020/12/09 07:10:19;;;;;;;64.80;33.37;;;;;;;4.75;97.23;100333.13;5029606;28;20176;-70
2020/12/09 07:13:04;;;;;;;65.47;33.50;;;;;;;4.74;97.25;100328.78;5014040;28;20193;-70
2020/12/09 07:15:32;;;;;;;65.43;33.13;;;;;;;4.72;97.19;100325.50;5013188;28;20224;-70
2020/12/09 07:17:58;;;;;;;63.93;33.30;;;;;;;4.69;97.24;100329.50;5030360;28;20204;-69
2020/12/09 07:20:24;;;;;;;64.17;33.40;;;;;;;4.69;96.87;100324.13;5021468;28;20183;-70
2020/12/09 07:22:49;;;;;;;58.77;33.53;;;;;;;4.72;97.04;100323.63;5000816;28;20328;-70
2020/12/09 07:25:18;;;;;;;65.73;33.00;;;;;;;4.86;96.66;100324.16;4994533;28;20184;-70
2020/12/09 07:27:44;;;;;;;60.03;32.43;;;;;;;4.75;96.58;100317.78;4978231;28;20193;-71
2020/12/09 07:30:13;;;;;;;60.07;32.57;;;;;;;4.81;96.41;100322.19;4993741;28;20268;-71
2020/12/09 07:32:41;;;;;;;62.00;32.97;;;;;;;4.81;96.23;100316.81;4995050;28;20248;-72
2020/12/09 07:35:10;;;;;;;60.70;32.63;;;;;;;4.85;96.18;100309.06;4993583;28;20605;-70
2020/12/09 07:37:39;;;;;;;57.20;31.53;;;;;;;4.72;96.15;100309.38;4978853;28;20760;-70
2020/12/09 07:40:18;;;;;;;60.60;31.90;;;;;;;4.58;96.98;100310.75;4994793;28;20188;-70
2020/12/09 07:42:44;;;;;;;58.23;32.20;;;;;;;4.49;97.73;100306.84;4994593;28;20763;-70
2020/12/09 07:45:10;;;;;;;58.00;30.93;;;;;;;4.57;97.45;100313.69;4993510;28;20185;-71
2020/12/09 07:47:36;;;;;;;55.63;31.03;;;;;;;4.64;97.34;100313.28;4993888;28;20293;-70
2020/12/09 07:50:05;;;;;;;51.93;29.40;;;;;;;4.55;97.75;100305.84;4998859;28;20189;-70
2020/12/09 07:52:32;;;;;;;56.20;31.90;;;;;;;4.28;98.70;100310.19;5017854;28;20377;-70
2020/12/09 07:55:03;;;;;;;52.27;30.17;;;;;;;4.16;99.87;100305.09;5030055;28;20184;-70
2020/12/09 07:57:33;;;;;;;57.57;30.13;;;;;;;4.40;99.21;100308.28;4999040;28;20678;-71
2020/12/09 07:59:58;;;;;;;54.87;30.73;;;;;;;4.46;98.96;100310.00;4997658;28;20208;-71
2020/12/09 08:02:27;;;;;;;56.93;30.80;;;;;;;4.49;99.07;100306.84;5013295;28;20240;-72
2020/12/09 08:05:19;;;;;;;57.20;30.93;;;;;;;4.53;98.71;100302.59;4994393;28;20185;-71
2020/12/09 08:07:54;;;;;;;58.63;31.13;;;;;;;4.48;98.83;100304.38;4993318;28;20220;-72
2020/12/09 08:10:22;;;;;;;54.60;29.77;;;;;;;4.47;99.18;100308.94;5025888;28;20263;-70
2020/12/09 08:12:47;;;;;;;55.03;29.60;;;;;;;4.49;99.01;100296.06;5010142;28;20188;-71
2020/12/09 08:15:13;;;;;;;57.53;31.00;;;;;;;4.45;99.60;100296.78;5008819;28;20185;-71
2020/12/09 08:17:39;;;;;;;54.60;29.47;;;;;;;4.54;98.90;100298.84;5011408;28;20243;-70
2020/12/09 08:20:10;;;;;;;52.27;30.50;;;;;;;4.45;99.13;100300.31;5019091;28;20196;-71
2020/12/09 08:23:01;;;;;;;48.43;26.73;;;;;;;4.34;99.46;100305.72;5006592;28;20236;-70
2020/12/09 08:25:31;;;;;;;48.30;27.60;;;;;;;4.48;99.21;100301.69;5001554;28;20294;-71
2020/12/09 08:28:07;;;;;;;53.33;29.40;;;;;;;4.55;98.54;100300.47;4994858;28;20224;-71
2020/12/09 08:30:33;;;;;;;47.43;27.57;;;;;;;4.58;98.58;100310.75;5009717;28;20315;-70
2020/12/09 08:33:04;;;;;;;48.20;28.33;;;;;;;4.55;98.49;100310.44;5009793;28;20185;-70
2020/12/09 08:35:41;;;;;;;55.23;29.00;;;;;;;4.62;98.41;100317.28;5008995;28;20224;-70
2020/12/09 08:38:07;;;;;;;49.93;28.30;;;;;;;4.70;98.33;100319.56;4994048;28;20240;-70
2020/12/09 08:40:33;;;;;;;50.27;28.53;;;;;;;4.58;98.29;100326.91;5011825;28;20338;-69
2020/12/09 08:43:01;;;;;;;48.53;28.17;;;;;;;4.78;97.73;100324.53;4994362;28;20715;-70
2020/12/09 08:45:27;;;;;;;51.13;27.10;;;;;;;4.75;97.75;100322.34;5009548;28;20228;-71
2020/12/09 08:47:53;;;;;;;52.07;28.07;;;;;;;4.68;97.37;100327.06;5009651;28;20221;-70
2020/12/09 08:50:20;;;;;;;49.97;28.73;;;;;;;4.77;97.06;100325.63;5009363;28;20274;-70
2020/12/09 08:52:50;;;;;;;47.57;27.97;;;;;;;4.90;96.67;100319.91;4991184;28;20188;-71
2020/12/09 08:55:16;;;;;;;46.37;27.43;;;;;;;4.93;96.19;100314.88;5008494;28;20181;-72
2020/12/09 08:57:41;;;;;;;43.07;26.37;;;;;;;4.93;95.81;100324.78;5009654;28;20197;-72
2020/12/09 09:00:07;;;;;;;43.20;25.37;;;;;;;4.91;95.91;100322.38;4976859;28;20173;-71
2020/12/09 09:02:33;;;;;;;48.20;27.23;;;;;;;4.95;95.80;100326.19;5009077;28;20224;-71
2020/12/09 09:04:59;;;;;;;44.37;25.93;;;;;;;4.97;95.72;100327.56;5025824;28;20212;-71
2020/12/09 09:07:27;;;;;;;44.00;25.70;;;;;;;4.86;96.17;100329.53;4993903;28;20232;-72
2020/12/09 09:09:53;;;;;;;41.80;25.60;;;;;;;4.80;95.88;100341.25;5026736;28;20674;-72
2020/12/09 09:12:18;;;;;;;41.30;25.83;;;;;;;4.85;95.89;100333.28;5009806;28;20248;-72
2020/12/09 09:14:44;;;;;;;46.40;26.83;;;;;;;4.81;96.09;100338.31;5010543;28;20216;-71
2020/12/09 09:17:10;;;;;;;47.27;26.53;;;;;;;4.80;96.03;100331.31;5013231;28;20773;-71
2020/12/09 09:19:36;;;;;;;44.63;25.93;;;;;;;4.82;95.58;100344.53;4983194;28;20193;-71
2020/12/09 09:22:04;;;;;;;47.13;27.27;;;;;;;5.00;95.16;100342.44;5035904;28;20224;-71
2020/12/09 09:24:29;;;;;;;47.57;27.53;;;;;;;5.12;95.47;100352.03;5009060;28;20548;-72
2020/12/09 09:26:55;;;;;;;41.97;26.23;;;;;;;5.13;94.69;100353.69;5008390;28;20225;-71
2020/12/09 09:29:21;;;;;;;44.17;27.00;;;;;;;5.17;94.72;100354.00;4992763;28;20725;-73
2020/12/09 09:31:47;;;;;;;45.93;26.97;;;;;;;5.28;94.34;100356.63;4976002;28;20291;-70
2020/12/09 09:34:12;;;;;;;41.77;25.93;;;;;;;5.32;94.63;100354.25;5012266;28;20185;-70
2020/12/09 09:36:41;;;;;;;43.53;26.33;;;;;;;5.31;93.49;100361.53;5011450;28;20263;-71
2020/12/09 09:39:07;;;;;;;45.67;27.40;;;;;;;5.29;93.77;100358.22;4984825;28;20180;-71
2020/12/09 09:41:33;;;;;;;47.43;27.13;;;;;;;5.23;93.30;100356.53;5003609;28;20221;-71
2020/12/09 09:43:59;;;;;;;46.87;27.03;;;;;;;5.21;93.26;100352.47;5012560;28;20197;-71
2020/12/09 09:46:24;;;;;;;44.80;26.83;;;;;;;5.21;93.99;100350.56;5011556;28;20232;-71
2020/12/09 09:48:50;;;;;;;46.23;27.70;;;;;;;5.13;93.94;100364.44;4999889;28;20654;-71
2020/12/09 09:51:16;;;;;;;46.40;27.43;;;;;;;5.06;94.60;100361.09;5017962;28;20233;-71
2020/12/09 09:53:42;;;;;;;44.23;26.90;;;;;;;5.09;94.27;100365.16;5016047;28;20876;-71
2020/12/09 09:56:08;;;;;;;45.50;27.73;;;;;;;5.22;94.54;100368.38;5007960;28;20224;-71
2020/12/09 09:58:34;;;;;;;45.67;27.40;;;;;;;5.23;94.16;100361.91;5031484;28;20230;-70
2020/12/09 10:00:59;;;;;;;45.47;27.60;;;;;;;5.29;94.36;100360.91;4999826;28;20595;-71
2020/12/09 10:03:27;;;;;;;45.73;27.50;;;;;;;5.41;94.11;100370.53;5000552;28;20652;-71
2020/12/09 10:05:53;;;;;;;45.17;27.30;;;;;;;5.42;94.05;100369.50;5001632;28;20282;-72
2020/12/09 10:08:19;;;;;;;47.70;27.80;;;;;;;5.36;93.94;100369.66;5003342;28;20256;-71
2020/12/09 10:10:47;;;;;;;44.50;26.67;;;;;;;5.32;94.09;100378.47;5018008;28;20228;-71
2020/12/09 10:13:12;;;;;;;45.63;28.03;;;;;;;5.36;93.42;100364.28;5000738;28;20673;-71
2020/12/09 10:15:40;;;;;;;47.53;27.03;;;;;;;5.36;92.99;100357.00;4999683;28;20252;-70
2020/12/09 10:18:06;;;;;;;49.83;28.10;;;;;;;5.42;93.29;100365.97;4999091;28;20220;-71
2020/12/09 10:20:32;;;;;;;50.03;29.00;;;;;;;5.31;93.32;100369.59;5008291;28;20250;-71
2020/12/09 10:22:57;;;;;;;49.10;27.53;;;;;;;5.35;93.37;100368.03;5020834;28;20240;-71
2020/12/09 10:25:24;;;;;;;48.93;29.03;;;;;;;5.37;93.20;100368.59;5017465;28;20231;-71
2020/12/09 10:27:52;;;;;;;49.57;27.13;;;;;;;5.45;93.44;100362.81;5019196;28;20238;-71
2020/12/09 10:30:17;;;;;;;49.03;28.30;;;;;;;5.42;93.53;100368.66;5037682;28;20180;-71
2020/12/09 10:32:49;;;;;;;46.97;28.43;;;;;;;5.45;93.35;100368.19;5020476;28;20196;-71
2020/12/09 10:35:14;;;;;;;49.20;28.70;;;;;;;5.55;93.55;100368.31;5021048;28;20191;-71
2020/12/09 10:37:42;;;;;;;50.37;28.97;;;;;;;5.49;93.52;100369.31;5003388;28;20270;-73
2020/12/09 10:40:13;;;;;;;48.87;28.97;;;;;;;5.36;93.84;100366.97;5016758;28;20219;-72
2020/12/09 10:42:39;;;;;;;45.10;27.40;;;;;;;5.34;93.82;100363.69;5004281;28;20189;-71
2020/12/09 10:45:08;;;;;;;47.63;29.27;;;;;;;5.37;94.01;100360.53;4993689;28;20189;-71
2020/12/09 10:47:36;;;;;;;56.40;30.07;;;;;;;5.20;94.64;100359.72;5011765;28;20248;-71
2020/12/09 10:50:05;;;;;;;49.47;28.57;;;;;;;5.40;94.58;100360.84;5018318;28;20181;-71
2020/12/09 10:52:31;;;;;;;48.37;29.30;;;;;;;5.51;93.66;100359.09;5018024;28;20312;-71
2020/12/09 10:54:57;;;;;;;52.00;29.53;;;;;;;5.45;93.07;100352.03;5013078;28;20192;-71
2020/12/09 10:57:22;;;;;;;50.60;29.60;;;;;;;5.56;92.97;100361.88;5011114;28;20386;-71
2020/12/09 10:59:48;;;;;;;52.33;29.63;;;;;;;5.42;93.50;100352.50;5011158;28;20200;-71
2020/12/09 11:02:16;;;;;;;48.83;29.43;;;;;;;5.54;93.08;100358.63;4994511;28;20225;-71
2020/12/09 11:04:41;;;;;;;49.23;28.20;;;;;;;5.46;93.47;100359.06;5012044;28;20177;-71
2020/12/09 11:07:08;;;;;;;44.73;27.73;;;;;;;5.59;93.44;100358.72;4978070;28;20229;-71
2020/12/09 11:09:34;;;;;;;48.57;28.27;;;;;;;5.45;93.32;100349.34;4994378;28;20210;-71
2020/12/09 11:12:00;;;;;;;52.67;29.53;;;;;;;5.43;93.46;100343.38;5015210;28;20306;-71
2020/12/09 11:14:25;;;;;;;50.53;29.03;;;;;;;5.38;93.73;100346.00;5005908;28;20231;-70
2020/12/09 11:16:54;;;;;;;48.33;27.93;;;;;;;5.54;93.88;100350.56;5029894;28;20220;-71
2020/12/09 11:19:19;;;;;;;49.30;28.57;;;;;;;5.40;93.83;100351.94;4996755;28;20200;-71
2020/12/09 11:21:45;;;;;;;46.87;28.93;;;;;;;5.47;94.20;100349.91;5005117;28;20246;-71
2020/12/09 11:24:11;;;;;;;49.97;28.17;;;;;;;5.52;93.66;100347.28;5011956;28;20185;-71